Time;durP1;ratioP1;P1;durP2;ratioP2;P2;SDS_P1;SDS_P2;PMS_P1;PMS_P2;Temp;Humidity;BMP_temperature;BMP_pressure;BME280_temperature;BME280_humidity;BME280_pressure;Samples;Min_cycle;Max_cycle;Signal;HPM_P1;HPM_P2
2022/07/28 00:00:38;;;;;;;2.30;1.50;;;;;;;15.70;76.29;101262.44;4995065;28;20483;-67
2022/07/28 00:03:04;;;;;;;0.47;0.38;;;;;;;15.56;77.31;101267.75;4994550;28;20085;-67
2022/07/28 00:05:29;;;;;;;2.05;0.70;;;;;;;15.59;76.92;101264.28;4994700;28;20085;-67
2022/07/28 00:07:55;;;;;;;0.70;0.65;;;;;;;15.46;77.24;101265.72;4993394;28;20090;-67
2022/07/28 00:10:20;;;;;;;1.50;0.90;;;;;;;15.32;77.97;101262.81;4995061;28;20598;-67
2022/07/28 00:12:46;;;;;;;1.20;0.70;;;;;;;15.28;78.29;101259.28;4994360;28;20442;-67
2022/07/28 00:15:12;;;;;;;1.08;0.60;;;;;;;15.46;77.87;101259.50;5009518;28;20492;-67
2022/07/28 00:17:37;;;;;;;0.93;0.60;;;;;;;15.39;78.14;101260.16;4994816;28;20033;-67
2022/07/28 00:20:04;;;;;;;1.98;0.80;;;;;;;15.36;78.05;101258.19;4980727;28;20510;-67
2022/07/28 00:22:29;;;;;;;1.70;0.75;;;;;;;15.11;79.16;101257.94;4973737;28;20476;-67
2022/07/28 00:24:55;;;;;;;0.95;0.60;;;;;;;15.02;79.74;101260.13;4973742;28;20045;-67
2022/07/28 00:27:21;;;;;;;1.15;0.68;;;;;;;14.94;80.57;101263.16;4975261;28;20039;-67
2022/07/28 00:29:47;;;;;;;3.60;0.90;;;;;;;14.98;80.58;101253.13;4974035;28;20423;-67
2022/07/28 00:32:12;;;;;;;1.02;0.80;;;;;;;14.96;80.52;101266.28;4975162;28;20039;-67
2022/07/28 00:34:38;;;;;;;4.97;0.85;;;;;;;15.06;80.63;101262.91;4984842;28;20450;-67
2022/07/28 00:37:03;;;;;;;1.05;0.60;;;;;;;15.08;80.38;101260.56;4993208;28;20615;-67
2022/07/28 00:39:29;;;;;;;0.90;0.50;;;;;;;15.05;80.07;101258.63;4992751;28;20124;-67
2022/07/28 00:41:54;;;;;;;1.92;0.88;;;;;;;15.00;80.21;101258.97;4994283;28;20483;-67
2022/07/28 00:44:20;;;;;;;3.00;0.70;;;;;;;14.98;80.47;101258.53;4994253;28;20037;-67
2022/07/28 00:46:45;;;;;;;0.98;0.70;;;;;;;14.95;80.95;101264.69;4993460;28;20402;-67
2022/07/28 00:49:13;;;;;;;1.52;0.88;;;;;;;14.91;80.94;101259.22;4994149;28;20045;-67
2022/07/28 00:51:39;;;;;;;3.83;0.70;;;;;;;14.95;80.35;101260.06;4994016;28;20388;-67
2022/07/28 00:54:05;;;;;;;0.60;0.50;;;;;;;14.69;81.27;101260.09;4992819;28;20080;-67
2022/07/28 00:56:32;;;;;;;0.80;0.80;;;;;;;14.63;82.19;101274.34;4987233;28;20427;-67
2022/07/28 00:58:58;;;;;;;1.08;0.77;;;;;;;14.78;81.67;101276.09;4974938;28;20040;-67
2022/07/28 01:01:24;;;;;;;0.75;0.55;;;;;;;14.80;80.61;101260.25;4974188;28;20030;-67
2022/07/28 01:03:53;;;;;;;1.67;0.68;;;;;;;14.76;80.52;101262.13;4974506;28;20039;-67
2022/07/28 01:06:38;;;;;;;2.17;0.82;;;;;;;14.60;81.18;101273.13;4982201;28;20479;-67
2022/07/28 01:09:28;;;;;;;0.93;0.60;;;;;;;14.48;82.02;101269.88;4993856;28;20474;-67
2022/07/28 01:11:53;;;;;;;0.63;0.47;;;;;;;14.39;82.92;101262.00;4993829;28;20034;-67
2022/07/28 01:14:22;;;;;;;0.57;0.50;;;;;;;14.66;81.51;101260.84;4986347;28;20561;-67
2022/07/28 01:17:19;;;;;;;0.77;0.52;;;;;;;14.56;81.11;101264.19;4974258;28;20039;-67
2022/07/28 01:19:52;;;;;;;1.05;0.80;;;;;;;14.59;81.36;101268.09;4972788;28;20039;-67
2022/07/28 01:22:21;;;;;;;0.63;0.38;;;;;;;14.52;82.22;101265.28;4974149;28;20042;-67
2022/07/28 01:25:05;;;;;;;2.42;0.90;;;;;;;14.49;82.00;101269.50;4992811;28;20038;-67
2022/07/28 01:27:50;;;;;;;2.30;0.68;;;;;;;14.45;82.47;101269.47;4993473;28;20035;-67
2022/07/28 01:30:24;;;;;;;0.52;0.50;;;;;;;14.43;82.49;101281.81;4992135;28;20030;-67
2022/07/28 01:33:16;;;;;;;1.70;0.50;;;;;;;14.37;82.71;101267.00;4979410;28;20073;-67
2022/07/28 01:36:01;;;;;;;3.50;1.00;;;;;;;14.29;83.13;101265.31;4992929;28;20037;-67
2022/07/28 01:38:30;;;;;;;0.70;0.60;;;;;;;14.29;83.11;101263.41;4993418;28;20034;-67
2022/07/28 01:40:58;;;;;;;1.02;0.82;;;;;;;14.39;82.84;101265.50;4986632;28;20045;-67
2022/07/28 01:43:26;;;;;;;0.60;0.60;;;;;;;14.33;83.53;101261.53;4973863;28;20031;-67
2022/07/28 01:45:54;;;;;;;0.80;0.50;;;;;;;14.30;83.15;101267.66;4973811;28;20038;-67
2022/07/28 01:48:21;;;;;;;0.55;0.50;;;;;;;14.26;83.40;101264.13;4991748;28;20491;-67
2022/07/28 01:50:49;;;;;;;0.65;0.65;;;;;;;14.31;82.95;101266.53;4993083;28;20030;-67
2022/07/28 01:53:16;;;;;;;0.50;0.50;;;;;;;14.33;82.68;101268.88;4993179;28;20084;-67
2022/07/28 01:55:43;;;;;;;0.88;0.70;;;;;;;14.10;83.29;101273.50;4992039;28;20058;-67
2022/07/28 01:58:11;;;;;;;1.00;0.80;;;;;;;14.11;83.41;101272.38;4991688;28;20080;-67
2022/07/28 02:00:38;;;;;;;2.00;0.85;;;;;;;14.11;83.85;101272.38;4991767;28;20384;-67
2022/07/28 02:03:05;;;;;;;2.50;0.75;;;;;;;14.22;83.38;101274.13;4992439;28;20034;-67
2022/07/28 02:05:33;;;;;;;0.88;0.80;;;;;;;14.15;82.98;101273.22;4992469;28;20483;-67
2022/07/28 02:08:01;;;;;;;3.33;1.08;;;;;;;14.25;82.69;101269.88;4991455;28;20041;-67
2022/07/28 02:10:28;;;;;;;1.88;1.05;;;;;;;14.27;82.72;101271.13;4991455;28;20085;-67
2022/07/28 02:12:56;;;;;;;2.22;0.90;;;;;;;14.19;82.85;101269.41;4989510;28;20081;-67
2022/07/28 02:15:25;;;;;;;0.60;0.60;;;;;;;14.09;83.49;101269.25;5025971;22;20065;-70
2022/07/28 02:17:52;;;;;;;1.70;0.90;;;;;;;14.12;83.92;101279.34;5010911;28;20042;-70
2022/07/28 02:20:18;;;;;;;0.55;0.40;;;;;;;14.07;84.42;101275.00;5011969;28;20022;-70
2022/07/28 02:22:45;;;;;;;1.60;0.77;;;;;;;14.04;84.93;101264.13;5011987;28;20529;-71
2022/07/28 02:25:14;;;;;;;0.93;0.63;;;;;;;14.07;84.60;101269.59;5010644;28;20465;-70
2022/07/28 02:27:48;;;;;;;0.55;0.50;;;;;;;14.08;85.14;101273.09;5011952;28;20053;-70
2022/07/28 02:30:24;;;;;;;0.82;0.60;;;;;;;14.22;84.69;101268.69;5011814;28;20034;-70
2022/07/28 02:32:53;;;;;;;0.90;0.77;;;;;;;14.26;84.27;101264.13;5001051;28;20085;-70
2022/07/28 02:35:27;;;;;;;1.95;0.95;;;;;;;14.24;84.89;101255.56;5008024;28;20605;-70
2022/07/28 02:37:58;;;;;;;2.35;1.25;;;;;;;14.18;85.54;101273.28;5011631;28;20041;-70
2022/07/28 02:40:32;;;;;;;0.98;0.88;;;;;;;14.23;85.30;101267.53;5000959;28;20057;-70
2022/07/28 02:42:59;;;;;;;2.55;1.00;;;;;;;14.20;85.95;101268.28;4992194;28;20057;-70
2022/07/28 02:45:26;;;;;;;1.42;0.75;;;;;;;14.25;85.54;101267.97;4989934;28;20038;-70
2022/07/28 02:47:57;;;;;;;1.85;0.90;;;;;;;14.35;85.06;101269.28;5007464;28;20030;-70
2022/07/28 02:50:26;;;;;;;0.60;0.60;;;;;;;14.34;84.94;101273.91;4990587;28;20046;-70
2022/07/28 02:52:56;;;;;;;1.05;0.60;;;;;;;14.42;84.55;101280.22;4991713;28;20065;-70
2022/07/28 02:55:23;;;;;;;1.67;0.70;;;;;;;14.31;85.01;101274.66;4991232;28;20037;-70
2022/07/28 02:57:49;;;;;;;0.60;0.60;;;;;;;14.40;83.98;101277.88;4990679;28;20034;-70
2022/07/28 03:00:15;;;;;;;0.77;0.60;;;;;;;14.35;84.05;101275.50;4990651;28;20540;-70
2022/07/28 03:02:45;;;;;;;0.68;0.60;;;;;;;14.30;84.01;101283.16;4991818;28;20117;-70
2022/07/28 03:05:13;;;;;;;1.20;0.50;;;;;;;14.36;83.71;101284.41;5005861;28;20057;-71
2022/07/28 03:07:40;;;;;;;0.60;0.60;;;;;;;14.31;83.81;101280.09;4991889;28;20419;-70
2022/07/28 03:10:06;;;;;;;0.68;0.68;;;;;;;14.15;84.40;101284.06;4991506;28;20038;-70
2022/07/28 03:12:32;;;;;;;1.95;0.77;;;;;;;14.23;84.92;101291.13;4991597;28;20061;-70
2022/07/28 03:14:58;;;;;;;1.75;0.70;;;;;;;14.43;83.02;101287.22;5005277;28;20027;-70
2022/07/28 03:17:23;;;;;;;1.58;0.75;;;;;;;14.33;83.67;101293.25;4991529;28;20034;-70
2022/07/28 03:19:49;;;;;;;1.40;0.68;;;;;;;14.27;84.36;101294.69;4991748;28;20034;-70
2022/07/28 03:22:14;;;;;;;2.03;0.68;;;;;;;14.11;85.14;101305.66;4990249;28;20034;-70
2022/07/28 03:24:50;;;;;;;1.55;0.93;;;;;;;14.11;85.45;101299.47;4993785;28;20053;-70
2022/07/28 03:27:32;;;;;;;1.42;1.00;;;;;;;14.23;84.02;101300.06;4995268;28;20038;-70
2022/07/28 03:30:05;;;;;;;2.97;0.63;;;;;;;14.29;84.39;101308.69;4996565;28;20031;-70
2022/07/28 03:32:33;;;;;;;0.70;0.60;;;;;;;14.26;85.04;101304.75;5014925;28;20136;-70
2022/07/28 03:34:59;;;;;;;0.47;0.47;;;;;;;14.22;85.54;101317.47;5014274;28;20483;-70
2022/07/28 03:37:31;;;;;;;0.85;0.68;;;;;;;14.20;86.00;101308.91;5015010;28;20038;-70
2022/07/28 03:39:59;;;;;;;2.45;0.75;;;;;;;14.38;85.51;101318.13;5014242;28;20040;-70
2022/07/28 03:42:27;;;;;;;0.60;0.60;;;;;;;14.44;85.72;101318.59;5014769;28;20092;-69
2022/07/28 03:44:53;;;;;;;0.45;0.40;;;;;;;14.48;86.02;101316.72;5014018;28;20042;-69
2022/07/28 03:47:23;;;;;;;1.02;0.52;;;;;;;14.52;86.51;101316.78;5014587;28;20105;-69
2022/07/28 03:49:49;;;;;;;0.70;0.55;;;;;;;14.63;85.27;101320.44;5014313;28;20056;-70
2022/07/28 03:52:15;;;;;;;1.23;0.73;;;;;;;14.69;84.91;101325.16;5013359;28;20037;-70
2022/07/28 03:54:41;;;;;;;0.55;0.50;;;;;;;14.71;85.47;101331.00;5012373;28;20042;-69
2022/07/28 03:57:06;;;;;;;1.42;0.68;;;;;;;14.73;85.55;101326.00;5016629;28;20537;-70
2022/07/28 03:59:32;;;;;;;0.85;0.50;;;;;;;14.80;85.84;101319.91;4995083;28;20031;-70
2022/07/28 04:01:57;;;;;;;1.30;0.77;;;;;;;15.02;85.05;101329.91;4994836;28;20042;-72
2022/07/28 04:04:23;;;;;;;2.95;0.50;;;;;;;14.94;85.78;101328.25;5001954;28;20034;-69
2022/07/28 04:06:49;;;;;;;0.70;0.60;;;;;;;14.97;85.58;101325.56;4996035;28;20594;-70
2022/07/28 04:09:15;;;;;;;1.13;0.93;;;;;;;15.00;86.21;101332.97;5014531;28;20022;-70
2022/07/28 04:11:41;;;;;;;2.25;0.68;;;;;;;15.00;86.81;101334.91;5014223;28;20398;-70
2022/07/28 04:14:07;;;;;;;0.68;0.63;;;;;;;15.07;86.73;101329.56;5013925;28;20368;-70
2022/07/28 04:16:32;;;;;;;0.60;0.60;;;;;;;15.14;86.71;101326.94;5013398;28;20034;-70
2022/07/28 04:18:58;;;;;;;1.92;0.70;;;;;;;15.11;87.01;101323.03;5029195;28;20108;-69
2022/07/28 04:21:24;;;;;;;1.08;0.88;;;;;;;15.22;86.96;101328.59;5013099;28;20038;-70
2022/07/28 04:23:50;;;;;;;2.28;0.75;;;;;;;15.33;86.50;101324.84;5003380;28;20113;-69
2022/07/28 04:26:16;;;;;;;1.40;0.68;;;;;;;15.39;86.18;101331.53;4993403;28;20031;-70
2022/07/28 04:28:43;;;;;;;0.93;0.73;;;;;;;15.33;85.92;101318.63;4993251;28;20097;-70
2022/07/28 04:31:08;;;;;;;2.35;0.70;;;;;;;15.37;86.21;101328.41;4994066;28;20538;-70
2022/07/28 04:33:34;;;;;;;3.13;0.70;;;;;;;15.37;86.71;101320.25;5004313;28;20050;-70
2022/07/28 04:36:00;;;;;;;3.13;0.63;;;;;;;15.44;86.94;101319.59;5012169;28;20038;-70
2022/07/28 04:38:27;;;;;;;0.82;0.73;;;;;;;15.49;86.57;101330.09;5014012;28;20653;-70
2022/07/28 04:40:56;;;;;;;2.00;0.88;;;;;;;15.55;87.29;101325.91;5013676;28;20050;-69
2022/07/28 04:43:25;;;;;;;2.08;1.13;;;;;;;15.48;86.27;101335.91;5013159;28;20034;-70
2022/07/28 04:45:51;;;;;;;0.80;0.65;;;;;;;15.42;85.47;101330.03;5012854;28;20121;-69
2022/07/28 04:48:17;;;;;;;2.17;0.60;;;;;;;15.57;84.94;101333.69;5013628;28;20117;-69
2022/07/28 04:50:44;;;;;;;0.63;0.60;;;;;;;15.45;85.64;101329.28;5006431;28;20056;-70
2022/07/28 04:53:11;;;;;;;1.05;0.77;;;;;;;15.60;85.67;101328.28;4993816;28;20101;-70
2022/07/28 04:55:39;;;;;;;1.75;0.80;;;;;;;15.38;85.29;101332.69;4993213;28;20039;-70
2022/07/28 04:58:05;;;;;;;1.00;0.77;;;;;;;15.56;85.73;101332.91;5009052;28;20023;-69
2022/07/28 05:00:31;;;;;;;1.08;0.50;;;;;;;15.64;86.20;101322.91;5007996;28;20041;-71
2022/07/28 05:02:57;;;;;;;1.20;0.98;;;;;;;15.54;85.53;101320.88;5028688;28;20092;-69
2022/07/28 05:05:24;;;;;;;1.70;0.88;;;;;;;15.57;84.69;101320.91;5028020;28;20398;-69
2022/07/28 05:07:49;;;;;;;0.82;0.80;;;;;;;15.73;84.92;101326.91;5008553;28;20070;-70
2022/07/28 05:10:15;;;;;;;0.65;0.57;;;;;;;15.88;83.80;101325.09;4992556;28;20073;-69
2022/07/28 05:12:41;;;;;;;2.45;0.88;;;;;;;15.97;83.65;101317.41;4993865;28;20053;-69
2022/07/28 05:15:08;;;;;;;1.02;0.65;;;;;;;16.06;84.13;101318.66;4993095;28;20495;-69
2022/07/28 05:17:35;;;;;;;0.73;0.70;;;;;;;16.13;84.95;101317.94;4998227;28;20045;-71
2022/07/28 05:20:01;;;;;;;1.77;0.77;;;;;;;16.15;85.37;101327.28;5013067;28;20038;-69
2022/07/28 05:22:27;;;;;;;1.42;0.60;;;;;;;16.24;85.34;101337.81;5013061;28;20548;-69
2022/07/28 05:24:53;;;;;;;1.40;0.60;;;;;;;16.33;85.12;101327.44;5010563;28;20037;-70
2022/07/28 05:27:18;;;;;;;0.60;0.60;;;;;;;16.40;84.24;101326.69;4992161;28;20041;-71
2022/07/28 05:29:44;;;;;;;4.97;0.90;;;;;;;16.38;83.41;101329.78;4993344;28;20116;-69
2022/07/28 05:32:10;;;;;;;1.92;0.82;;;;;;;16.40;82.25;101343.78;4993334;28;20681;-69
2022/07/28 05:34:36;;;;;;;0.95;0.60;;;;;;;16.48;82.04;101344.63;5007635;28;20065;-71
2022/07/28 05:37:02;;;;;;;0.90;0.52;;;;;;;16.50;82.63;101345.06;5011359;28;20172;-69
2022/07/28 05:39:30;;;;;;;3.00;1.10;;;;;;;16.42;83.22;101352.34;5012928;28;20499;-70
2022/07/28 05:41:56;;;;;;;2.15;0.88;;;;;;;16.62;83.72;101347.47;5012429;28;20088;-69
2022/07/28 05:44:21;;;;;;;0.93;0.68;;;;;;;16.85;83.22;101362.41;5012832;28;20483;-70
2022/07/28 05:46:47;;;;;;;1.75;0.60;;;;;;;17.05;82.65;101371.84;5011072;28;20113;-70
2022/07/28 05:49:12;;;;;;;2.97;0.95;;;;;;;17.17;82.79;101365.28;5012633;28;20441;-69
2022/07/28 05:51:37;;;;;;;0.98;0.60;;;;;;;17.11;81.86;101355.94;5002661;28;20089;-70
2022/07/28 05:54:03;;;;;;;1.75;0.73;;;;;;;17.25;81.32;101355.25;4992832;28;20105;-69
2022/07/28 05:56:28;;;;;;;1.65;0.70;;;;;;;17.31;81.13;101356.41;4991996;28;20034;-71
2022/07/28 05:58:54;;;;;;;2.47;0.85;;;;;;;17.38;81.52;101370.06;4992812;28;20529;-70
2022/07/28 06:01:19;;;;;;;1.48;0.80;;;;;;;17.43;81.01;101362.31;5008690;28;20041;-70
2022/07/28 06:03:45;;;;;;;4.20;0.90;;;;;;;17.53;81.74;101361.59;5012446;28;20077;-70
2022/07/28 06:06:10;;;;;;;3.13;0.77;;;;;;;17.67;81.12;101364.34;5011147;28;20081;-70
2022/07/28 06:08:36;;;;;;;0.77;0.70;;;;;;;17.77;80.86;101358.16;5012386;28;20097;-69
2022/07/28 06:11:08;;;;;;;1.92;0.90;;;;;;;17.88;79.97;101356.25;5011968;28;20042;-70
2022/07/28 06:13:35;;;;;;;2.25;1.02;;;;;;;18.08;79.47;101353.16;5012363;28;20033;-69
2022/07/28 06:16:00;;;;;;;1.50;0.70;;;;;;;18.28;79.09;101351.59;5011426;28;20034;-69
2022/07/28 06:18:26;;;;;;;3.58;0.90;;;;;;;18.52;79.08;101356.31;5011986;28;20107;-70
2022/07/28 06:20:51;;;;;;;0.93;0.80;;;;;;;18.70;77.06;101357.84;5011879;28;20050;-72
2022/07/28 06:23:20;;;;;;;4.05;0.43;;;;;;;18.79;75.45;101360.94;5012112;28;20038;-69
2022/07/28 06:25:46;;;;;;;3.97;0.88;;;;;;;18.71;73.69;101372.28;5010742;28;20029;-70
2022/07/28 06:28:12;;;;;;;0.43;0.30;;;;;;;18.63;70.39;101366.03;5026931;28;20136;-70
2022/07/28 06:30:38;;;;;;;1.63;0.55;;;;;;;18.86;71.15;101374.59;5012004;28;20165;-69
2022/07/28 06:33:04;;;;;;;2.38;0.50;;;;;;;18.70;69.88;101379.66;5011859;28;20088;-70
2022/07/28 06:35:31;;;;;;;0.50;0.40;;;;;;;18.81;72.27;101377.69;5007809;28;20718;-69
2022/07/28 06:37:57;;;;;;;0.70;0.30;;;;;;;18.81;72.16;101374.97;4992204;28;20410;-70
2022/07/28 06:40:23;;;;;;;2.42;0.50;;;;;;;18.75;70.95;101378.50;4992140;28;20109;-70
2022/07/28 06:42:50;;;;;;;0.40;0.20;;;;;;;18.94;73.05;101378.06;4992262;28;20038;-70
2022/07/28 06:45:16;;;;;;;2.38;1.42;;;;;;;19.08;73.68;101390.91;4991677;28;20028;-70
2022/07/28 06:47:42;;;;;;;3.88;0.65;;;;;;;19.30;72.06;101387.72;4990459;28;20118;-70
2022/07/28 06:50:08;;;;;;;0.70;0.50;;;;;;;19.33;69.12;101391.66;4991928;28;20030;-70
2022/07/28 06:52:35;;;;;;;1.55;0.88;;;;;;;19.42;68.94;101390.06;4991166;28;20038;-70
2022/07/28 06:55:02;;;;;;;0.65;0.20;;;;;;;19.38;70.03;101392.03;4989697;28;20105;-70
2022/07/28 06:57:28;;;;;;;0.52;0.20;;;;;;;19.50;68.30;101391.59;4990789;28;20049;-70
2022/07/28 06:59:54;;;;;;;0.30;0.30;;;;;;;19.69;68.43;101390.31;4991454;28;20038;-70
2022/07/28 07:02:20;;;;;;;2.03;0.57;;;;;;;19.43;66.99;101391.63;4992206;28;20046;-70
2022/07/28 07:04:45;;;;;;;0.47;0.32;;;;;;;19.60;67.26;101390.75;4990742;28;20026;-69
2022/07/28 07:07:11;;;;;;;0.43;0.30;;;;;;;19.80;67.27;101389.06;4991455;28;20129;-69
2022/07/28 07:09:38;;;;;;;1.58;0.70;;;;;;;19.92;66.64;101392.56;4991557;28;20121;-69
2022/07/28 07:12:04;;;;;;;0.25;0.25;;;;;;;20.09;65.30;101397.13;4991589;28;20077;-71
2022/07/28 07:14:29;;;;;;;0.30;0.30;;;;;;;20.17;65.42;101393.94;4991462;28;20141;-69
2022/07/28 07:16:55;;;;;;;3.28;0.32;;;;;;;20.23;65.59;101399.78;4990502;28;20121;-70
2022/07/28 07:19:21;;;;;;;0.50;0.43;;;;;;;20.06;63.27;101386.97;4991815;28;20069;-70
2022/07/28 07:21:47;;;;;;;2.20;0.20;;;;;;;20.33;63.95;101393.44;5008452;28;20041;-70
2022/07/28 07:24:13;;;;;;;0.98;0.20;;;;;;;20.47;63.54;101393.34;5010860;28;20038;-70
2022/07/28 07:26:39;;;;;;;1.80;0.40;;;;;;;20.68;63.77;101396.69;5008853;28;20037;-71
2022/07/28 07:29:06;;;;;;;1.65;0.35;;;;;;;20.52;61.39;101396.44;5026040;28;20085;-70
2022/07/28 07:31:37;;;;;;;0.25;0.20;;;;;;;20.69;63.06;101397.47;5009782;28;20049;-70
2022/07/28 07:34:03;;;;;;;0.22;0.13;;;;;;;20.78;61.25;101397.75;5010163;28;20034;-72
2022/07/28 07:36:29;;;;;;;0.88;0.10;;;;;;;21.00;59.70;101407.31;5010739;28;20038;-72
2022/07/28 07:38:54;;;;;;;0.63;0.45;;;;;;;21.10;59.34;101413.94;5010928;28;20488;-72
2022/07/28 07:41:20;;;;;;;0.43;0.30;;;;;;;21.14;57.20;101404.47;5010937;28;20409;-70
2022/07/28 07:43:46;;;;;;;0.20;0.20;;;;;;;21.27;57.42;101405.47;5010505;28;20475;-70
2022/07/28 07:46:12;;;;;;;3.55;0.40;;;;;;;21.37;57.63;101412.81;5009310;28;20124;-70
2022/07/28 07:48:38;;;;;;;2.85;0.30;;;;;;;21.48;57.58;101413.47;5010969;28;20113;-70
2022/07/28 07:51:03;;;;;;;1.10;0.35;;;;;;;21.38;56.74;101406.16;5010653;28;20048;-70
2022/07/28 07:53:29;;;;;;;2.70;0.40;;;;;;;21.39;56.40;101413.19;5010137;28;20037;-70
2022/07/28 07:55:55;;;;;;;1.20;0.40;;;;;;;21.28;57.23;101412.53;5010223;28;20042;-70
2022/07/28 07:58:20;;;;;;;0.98;0.40;;;;;;;20.53;56.99;101402.69;5009366;28;20034;-70
2022/07/28 08:00:46;;;;;;;1.73;0.32;;;;;;;20.67;56.74;101410.78;5010775;28;20095;-70
2022/07/28 08:03:13;;;;;;;1.08;0.75;;;;;;;20.76;58.01;101391.13;5008992;28;20092;-70
2022/07/28 08:05:39;;;;;;;1.05;0.20;;;;;;;20.78;56.54;101403.25;5010226;28;20033;-70
2022/07/28 08:08:05;;;;;;;0.32;0.30;;;;;;;20.93;58.65;101396.44;5009147;28;20550;-70
2022/07/28 08:10:32;;;;;;;0.65;0.63;;;;;;;21.38;58.17;101400.69;5011235;28;20053;-70
2022/07/28 08:12:58;;;;;;;0.25;0.25;;;;;;;21.42;56.15;101401.41;4996737;28;20041;-70
2022/07/28 08:15:23;;;;;;;3.33;0.50;;;;;;;21.58;57.15;101402.78;5025752;22;20038;-68
2022/07/28 08:17:49;;;;;;;0.22;0.17;;;;;;;21.73;57.43;101395.91;5009853;28;20029;-68
2022/07/28 08:20:14;;;;;;;2.45;0.32;;;;;;;21.81;57.38;101400.94;5014065;28;20030;-67
2022/07/28 08:22:55;;;;;;;4.47;0.52;;;;;;;21.78;57.43;101395.44;5013947;28;20513;-67
2022/07/28 08:25:21;;;;;;;1.88;0.35;;;;;;;21.69;58.10;101397.94;5004129;28;20402;-68
2022/07/28 08:27:48;;;;;;;2.22;0.43;;;;;;;21.55;57.50;101394.19;5013912;28;20497;-67
2022/07/28 08:30:14;;;;;;;0.57;0.25;;;;;;;21.51;56.89;101401.69;5014175;28;20042;-67
2022/07/28 08:32:40;;;;;;;0.47;0.20;;;;;;;21.51;56.57;101396.19;5014095;28;20034;-67
2022/07/28 08:35:06;;;;;;;0.55;0.30;;;;;;;21.38;56.53;101400.69;5012526;28;20045;-68
2022/07/28 08:37:32;;;;;;;0.93;0.32;;;;;;;21.19;56.56;101400.50;5013957;28;20037;-67
2022/07/28 08:39:58;;;;;;;0.30;0.20;;;;;;;21.02;55.68;101399.50;5013829;28;20042;-68
2022/07/28 08:42:42;;;;;;;0.65;0.38;;;;;;;20.84;57.08;101404.38;5012929;28;20034;-67
2022/07/28 08:45:10;;;;;;;1.98;0.22;;;;;;;20.74;54.88;101397.03;5012912;28;20037;-67
2022/07/28 08:47:37;;;;;;;0.82;0.82;;;;;;;20.60;54.99;101397.94;5013812;28;20104;-67
2022/07/28 08:50:03;;;;;;;0.20;0.20;;;;;;;20.35;55.79;101391.88;5013535;28;20048;-67
2022/07/28 08:52:30;;;;;;;1.60;0.35;;;;;;;20.50;56.52;101389.78;4997131;28;20065;-67
2022/07/28 08:54:57;;;;;;;0.25;0.20;;;;;;;20.67;57.64;101389.63;4993019;28;20100;-67
2022/07/28 08:57:29;;;;;;;1.85;0.40;;;;;;;20.87;57.91;101386.31;5009059;28;20096;-67
2022/07/28 08:59:55;;;;;;;0.43;0.30;;;;;;;20.88;57.96;101388.69;5008977;28;20049;-68
2022/07/28 09:02:25;;;;;;;2.15;0.38;;;;;;;21.01;56.68;101388.94;4993803;28;20034;-68
2022/07/28 09:04:53;;;;;;;0.25;0.25;;;;;;;20.97;56.12;101388.97;4993011;28;20031;-68
2022/07/28 09:07:19;;;;;;;2.20;0.30;;;;;;;20.99;57.41;101388.56;4993345;28;20034;-67
2022/07/28 09:09:47;;;;;;;0.20;0.20;;;;;;;21.04;57.22;101385.41;5008413;28;20137;-67
2022/07/28 09:12:13;;;;;;;0.13;0.13;;;;;;;21.07;56.99;101399.06;4993661;28;20070;-67
2022/07/28 09:14:39;;;;;;;0.70;0.38;;;;;;;21.10;56.93;101390.03;4992887;28;20077;-67
2022/07/28 09:17:05;;;;;;;0.88;0.40;;;;;;;21.19;55.60;101387.59;5008260;28;20125;-67
2022/07/28 09:19:30;;;;;;;0.47;0.20;;;;;;;21.27;54.88;101388.28;5008452;28;20034;-68
2022/07/28 09:21:56;;;;;;;1.45;0.20;;;;;;;21.31;55.51;101389.78;4992883;28;20089;-68
2022/07/28 09:24:38;;;;;;;0.47;0.20;;;;;;;21.33;56.03;101392.88;4993297;28;20038;-68
2022/07/28 09:27:06;;;;;;;2.17;0.30;;;;;;;21.37;56.44;101387.34;4992115;28;20521;-68
2022/07/28 09:29:33;;;;;;;1.75;0.40;;;;;;;21.41;55.99;101383.41;4993320;28;20485;-68
2022/07/28 09:31:59;;;;;;;0.30;0.25;;;;;;;21.43;55.71;101388.47;4993313;28;20130;-68
2022/07/28 09:34:25;;;;;;;0.38;0.30;;;;;;;21.44;54.76;101387.28;5002426;28;20037;-69
2022/07/28 09:36:51;;;;;;;0.88;0.20;;;;;;;21.49;55.82;101395.06;5011539;28;20046;-68
2022/07/28 09:39:33;;;;;;;3.15;0.40;;;;;;;21.56;55.41;101398.47;5012546;28;20504;-69
2022/07/28 09:42:00;;;;;;;0.70;0.20;;;;;;;21.64;55.63;101392.91;5012738;28;20065;-68
2022/07/28 09:44:27;;;;;;;0.20;0.10;;;;;;;21.65;56.30;101395.25;5012197;28;20038;-68
2022/07/28 09:46:54;;;;;;;0.77;0.30;;;;;;;21.72;55.31;101395.13;4991096;28;20039;-68
2022/07/28 09:49:20;;;;;;;0.47;0.28;;;;;;;21.81;54.63;101394.66;4992764;28;20113;-68
2022/07/28 09:52:00;;;;;;;0.85;0.20;;;;;;;21.67;53.07;101401.09;4992925;28;20082;-68
2022/07/28 09:54:26;;;;;;;0.52;0.22;;;;;;;22.02;52.97;101388.88;5011982;28;20080;-68
2022/07/28 09:56:52;;;;;;;0.20;0.20;;;;;;;22.45;52.58;101389.78;5011415;28;20022;-68
2022/07/28 09:59:18;;;;;;;0.25;0.20;;;;;;;22.65;51.14;101400.84;5012398;28;20064;-68
2022/07/28 10:01:53;;;;;;;0.10;0.10;;;;;;;22.92;50.25;101394.06;5011561;28;20056;-68
2022/07/28 10:04:36;;;;;;;0.30;0.28;;;;;;;23.08;49.11;101393.38;5012297;28;20040;-68
2022/07/28 10:07:08;;;;;;;3.45;0.50;;;;;;;23.25;49.73;101398.53;5012165;28;20050;-68
2022/07/28 10:09:34;;;;;;;0.47;0.22;;;;;;;23.49;48.97;101395.72;5012230;28;20094;-68
2022/07/28 10:12:20;;;;;;;0.38;0.20;;;;;;;23.37;48.26;101397.16;5011065;28;20044;-68
2022/07/28 10:14:51;;;;;;;0.60;0.30;;;;;;;23.37;49.62;101394.41;5011534;28;20461;-69
2022/07/28 10:17:27;;;;;;;1.90;0.30;;;;;;;23.27;50.05;101401.63;5011979;28;20117;-67
2022/07/28 10:19:56;;;;;;;0.20;0.20;;;;;;;23.20;49.20;101390.78;5011703;28;20026;-68
2022/07/28 10:22:25;;;;;;;1.45;0.30;;;;;;;23.06;48.36;101391.06;5011472;28;20042;-68
2022/07/28 10:24:52;;;;;;;0.13;0.13;;;;;;;23.00;48.62;101387.25;5011161;28;20034;-68
2022/07/28 10:27:26;;;;;;;1.85;0.20;;;;;;;23.01;48.82;101383.31;5011726;28;20069;-68
2022/07/28 10:29:57;;;;;;;0.80;0.15;;;;;;;22.95;48.54;101385.00;5011561;28;20482;-68
2022/07/28 10:32:23;;;;;;;0.57;0.20;;;;;;;22.96;49.16;101386.53;5011592;28;20033;-68
2022/07/28 10:35:09;;;;;;;0.85;0.40;;;;;;;22.90;48.17;101379.97;5009206;28;20040;-68
2022/07/28 10:37:42;;;;;;;0.30;0.20;;;;;;;22.50;47.03;101380.25;5010967;28;20052;-68
2022/07/28 10:40:10;;;;;;;0.63;0.38;;;;;;;22.69;47.60;101387.81;5010657;28;20044;-69
2022/07/28 10:42:38;;;;;;;3.00;0.20;;;;;;;22.58;47.08;101390.75;5026525;28;20080;-68
2022/07/28 10:45:04;;;;;;;0.10;0.10;;;;;;;22.66;47.88;101385.91;5006412;28;20088;-68
2022/07/28 10:47:30;;;;;;;0.93;0.32;;;;;;;22.74;48.99;101392.84;4991927;28;20486;-68
2022/07/28 10:49:56;;;;;;;0.60;0.30;;;;;;;22.77;48.40;101390.03;4991746;28;20042;-68
2022/07/28 10:52:23;;;;;;;0.93;0.57;;;;;;;22.86;49.21;101390.25;4993410;28;20042;-68
2022/07/28 10:54:49;;;;;;;0.20;0.15;;;;;;;22.82;48.78;101386.78;4991247;28;20034;-68
2022/07/28 10:57:15;;;;;;;1.02;0.30;;;;;;;22.72;47.00;101382.28;5006370;28;20041;-70
2022/07/28 10:59:50;;;;;;;0.63;0.30;;;;;;;22.74;47.22;101377.13;5007024;28;20049;-68
2022/07/28 11:02:43;;;;;;;0.65;0.28;;;;;;;22.79;48.94;101387.63;5008112;28;20092;-68
2022/07/28 11:05:27;;;;;;;0.85;0.50;;;;;;;22.85;49.13;101396.16;5005544;28;20049;-69
2022/07/28 11:07:53;;;;;;;0.40;0.32;;;;;;;22.87;49.39;101389.06;5011448;28;20529;-68
2022/07/28 11:10:19;;;;;;;0.28;0.10;;;;;;;22.86;48.39;101381.25;5010422;28;20040;-68
2022/07/28 11:12:47;;;;;;;0.20;0.20;;;;;;;22.86;48.75;101384.75;5010133;28;20038;-68
2022/07/28 11:15:31;;;;;;;0.25;0.15;;;;;;;22.90;48.57;101379.97;5010223;28;20037;-69
2022/07/28 11:18:05;;;;;;;0.30;0.30;;;;;;;23.02;49.17;101382.09;5011448;28;20148;-68
2022/07/28 11:20:55;;;;;;;0.50;0.20;;;;;;;22.98;48.53;101388.84;4992370;28;20151;-68
2022/07/28 11:23:42;;;;;;;2.83;0.25;;;;;;;23.01;49.57;101383.31;4991688;28;20137;-68
2022/07/28 11:26:20;;;;;;;0.20;0.20;;;;;;;23.04;49.82;101385.19;4990811;28;20027;-68
2022/07/28 11:29:07;;;;;;;0.75;0.30;;;;;;;23.08;49.88;101387.88;4996130;28;20044;-69